Data for 04/11/2014

Time Sea-Level Adjusted Pressure Absolute Pressure Temperature Relative Humidity Dew Point   
(mb) (inHg) (mb) (inHg) (C) (F) (%) (C) (F)
00:05 1018 30.06 847 25.01 4 39.1 44 -7.2 19.1
00:10 1018 30.06 847 25.01 3.9 39 45 -7 19.3
00:15 1018 30.06 847 25.01 3.7 38.7 46 -6.9 19.5
00:20 1017 30.03 847 25.01 3.7 38.7 45 -7.1 19.2
00:25 1017 30.03 847 25.01 3.7 38.7 46 -7 19.4
00:30 1017 30.03 847 25.01 3.7 38.6 45 -7.1 19.2
00:35 1017 30.03 847 25.01 3.8 38.8 44 -7.3 18.9
00:40 1017 30.03 846 24.98 3.9 38.9 44 -7.3 18.8
00:45 1017 30.03 846 24.98 3.8 38.8 45 -7.1 19.1
00:50 1017 30.03 846 24.98 3.8 38.8 44 -7.3 18.9
00:55 1017 30.03 846 24.98 3.8 38.8 44 -7.3 18.9
01:00 1017 30.03 846 24.98 3.9 39 44 -7.4 18.7
01:05 1017 30.03 846 24.98 3.8 38.8 44 -7.2 19
01:10 1017 30.03 846 24.98 3.8 38.9 43 -7.7 18.1
01:15 1017 30.03 846 24.98 4.1 39.3 42 -7.7 18.2
01:20 1017 30.03 846 24.98 4.2 39.5 42 -7.8 18
01:25 1017 30.03 846 24.98 4.2 39.6 41 -7.9 17.8
01:30 1017 30.03 846 24.98 4.3 39.7 41 -7.8 18
01:35 1017 30.03 846 24.98 4.2 39.5 41 -8 17.7
01:40 1017 30.03 846 24.98 4.1 39.4 40 -8.1 17.3
01:45 1017 30.03 846 24.98 4.2 39.5 39 -8.5 16.8
01:50 1017 30.03 846 24.98 4.2 39.5 41 -8 17.6
01:55 1017 30.03 846 24.98 4 39.2 42 -7.8 18
02:00 1017 30.03 846 24.98 3.8 38.8 40 -8.5 16.7
02:05 1016 30 846 24.98 4 39.1 41 -8 17.6
02:10 1016 30 846 24.98 3.6 38.5 42 -8.3 17.1
02:15 1016 30 846 24.98 3.5 38.4 43 -7.9 17.7
02:20 1016 30 846 24.98 3.3 38 44 -7.9 17.8
02:25 1016 30 845 24.95 3.4 38.1 44 -7.8 18
02:30 1016 30 845 24.95 3.4 38.1 44 -7.6 18.3
02:35 1016 30 845 24.95 3.4 38.2 44 -7.7 18.1
02:40 1016 30 845 24.95 3.4 38.1 45 -7.4 18.6
02:45 1016 30 845 24.95 3.3 37.9 44 -7.9 17.8
02:50 1016 30 845 24.95 3.8 38.8 42 -8 17.6
02:55 1016 30 845 24.95 3.8 38.8 44 -7.5 18.6
03:00 1016 30 845 24.95 3.4 38.2 44 -7.6 18.3
03:05 1016 30 845 24.95 3.5 38.3 43 -7.9 17.9
03:10 1016 30 845 24.95 3.5 38.3 44 -7.7 18.1
03:15 1016 30 845 24.95 3.4 38 46 -7.3 18.9
03:20 1016 30 845 24.95 3.1 37.6 46 -7.4 18.7
03:25 1016 30 845 24.95 2.9 37.1 48 -7.1 19.3
03:30 1016 30 845 24.95 2.7 36.9 46 -7.7 18.1
03:35 1016 30 846 24.98 2.9 37.2 47 -7.3 18.9
03:40 1016 30 846 24.98 2.9 37.1 45 -7.8 17.9
03:45 1016 30 846 24.98 3.2 37.7 44 -8 17.5
03:50 1016 30 846 24.98 3.5 38.4 43 -7.9 17.9
03:55 1016 30 846 24.98 3.7 38.7 43 -7.7 18.1
04:00 1016 30 845 24.95 3.3 37.9 49 -6.4 20.6
04:05 1016 30 845 24.95 2.3 36.1 54 -6.1 21
04:10 1016 30 846 24.98 2.1 35.8 53 -6.5 20.3
04:15 1016 30 846 24.98 2.2 35.9 51 -7 19.3
04:20 1016 30 845 24.95 2.3 36.1 52 -6.7 19.9
04:25 1016 30 845 24.95 2.2 36 50 -7 19.3
04:30 1016 30 845 24.95 2.1 35.7 52 -6.8 19.8
04:35 1016 30 845 24.95 2.3 36.1 49 -7.4 18.6
04:40 1016 30 845 24.95 2.5 36.6 50 -6.9 19.5
04:45 1016 30 845 24.95 1.8 35.3 54 -6.6 20.2
04:50 1016 30 845 24.95 1.5 34.7 52 -7.2 19.1
04:55 1016 30 845 24.95 1.8 35.3 50 -7.6 18.3
05:00 1016 30 845 24.95 2.3 36.2 48 -7.5 18.5
05:05 1016 30 845 24.95 2.3 36.1 49 -7.4 18.6
05:10 1016 30 845 24.95 2.2 35.9 50 -7.2 19
05:15 1016 30 845 24.95 2 35.6 50 -7.4 18.7
05:20 1016 30 845 24.95 1.9 35.5 50 -7.4 18.6
05:25 1016 30 845 24.95 1.9 35.5 50 -7.5 18.6
05:30 1016 30 845 24.95 1.9 35.5 49 -7.6 18.4
05:35 1016 30 845 24.95 1.9 35.4 50 -7.5 18.5
05:40 1016 30 845 24.95 2 35.6 49 -7.6 18.3
05:45 1016 30 845 24.95 2 35.7 49 -7.5 18.5
05:50 1015 29.97 845 24.95 2.2 36 49 -7.3 18.9
05:55 1015 29.97 845 24.95 2 35.6 50 -7.3 18.9
06:00 1016 30 845 24.95 2 35.6 50 -7.4 18.7
06:05 1015 29.97 845 24.95 2.2 35.9 49 -7.5 18.5
06:10 1015 29.97 845 24.95 2.8 37.1 43 -8.7 16.4
06:15 1015 29.97 845 24.95 3.8 38.8 44 -7.3 18.8
06:20 1015 29.97 845 24.95 3.2 37.8 49 -6.5 20.3
06:25 1015 29.97 845 24.95 2.9 37.2 51 -6.2 20.9
06:30 1015 29.97 845 24.95 2.6 36.6 51 -6.5 20.3
06:35 1015 29.97 844 24.92 2.5 36.5 52 -6.5 20.4
06:40 1015 29.97 844 24.92 2.4 36.3 52 -6.5 20.2
06:45 1015 29.97 844 24.92 2.6 36.7 51 -6.6 20
06:50 1015 29.97 844 24.92 3 37.4 50 -6.4 20.5
06:55 1015 29.97 844 24.92 3.4 38.1 50 -6.1 21.1
07:00 1015 29.97 844 24.92 3.8 38.8 48 -6.2 20.8
07:05 1015 29.97 845 24.95 4.4 40 45 -6.5 20.3
07:10 1015 29.97 845 24.95 4.8 40.6 44 -6.6 20.2
07:15 1015 29.97 845 24.95 5.2 41.3 42 -6.7 19.9
07:20 1015 29.97 845 24.95 5.8 42.4 41 -6.6 20.1
07:25 1015 29.97 845 24.95 6.2 43.2 39 -6.7 20
07:30 1015 29.97 845 24.95 6.5 43.6 38 -6.7 19.9
07:35 1015 29.97 845 24.95 6.8 44.3 38 -6.6 20.1
07:40 1015 29.97 845 24.95 6.9 44.4 37 -6.7 19.9
07:45 1015 29.97 844 24.92 7.2 44.9 37 -6.6 20.2
07:50 1015 29.97 844 24.92 7.6 45.8 34 -7.4 18.7
07:55 1015 29.97 844 24.92 8.3 47 32 -7.2 19
08:00 1015 29.97 844 24.92 9.1 48.4 30 -7.7 18.2
08:05 1015 29.97 844 24.92 9.4 49 30 -7.3 18.9
08:10 1015 29.97 844 24.92 9.6 49.2 30 -7 19.4
08:15 1015 29.97 844 24.92 10 49.9 30 -6.7 19.9
08:20 1015 29.97 844 24.92 9.6 49.3 31 -6.7 19.9
08:25 1015 29.97 844 24.92 9.7 49.5 31 -6.5 20.3
08:30 1015 29.97 844 24.92 9.8 49.6 31 -6.6 20.1
08:35 1015 29.97 844 24.92 10.4 50.7 30 -6.5 20.3
08:40 1015 29.97 844 24.92 10.3 50.5 31 -6.2 20.9
08:45 1015 29.97 844 24.92 9.8 49.6 30 -6.8 19.8
08:50 1015 29.97 844 24.92 9.6 49.2 30 -7.1 19.3
08:55 1015 29.97 844 24.92 10.1 50.2 29 -7.1 19.3
09:00 1015 29.97 844 24.92 10.9 51.6 29 -6.5 20.2
09:05 1015 29.97 844 24.92 10.7 51.2 29 -6.7 20
09:10 1015 29.97 844 24.92 10.6 51.1 29 -6.7 19.9
09:15 1015 29.97 844 24.92 11 51.7 28 -6.6 20.1
09:20 1015 29.97 844 24.92 11.1 51.9 28 -6.8 19.7
09:25 1015 29.97 844 24.92 11.4 52.6 27 -7.1 19.2
09:30 1015 29.97 844 24.92 11.4 52.5 28 -6.7 20
09:35 1015 29.97 844 24.92 11.2 52.1 29 -6.1 21.1
09:40 1015 29.97 844 24.92 11.3 52.3 27 -7 19.5
09:45 1015 29.97 844 24.92 11.9 53.5 27 -6.7 20
09:50 1015 29.97 844 24.92 12.9 55.1 26 -6.3 20.7
09:55 1015 29.97 844 24.92 13.5 56.2 24 -6.9 19.5
10:00 1014 29.94 844 24.92 13.8 56.8 23 -6.8 19.8
10:05 1014 29.94 844 24.92 13.9 57.1 24 -6.5 20.4
10:10 1014 29.94 844 24.92 14.4 58 22 -7.1 19.2
10:15 1014 29.94 843 24.89 14.3 57.8 23 -6.4 20.4
10:20 1014 29.94 843 24.89 14.3 57.7 24 -5.8 21.6
10:25 1014 29.94 843 24.89 13.6 56.4 24 -6.4 20.4
10:30 1014 29.94 843 24.89 14.5 58 22 -7.2 19
10:35 1014 29.94 843 24.89 15 59 20 -7.7 18.1
10:40 1014 29.94 843 24.89 14.9 58.8 20 -7.7 18.2
10:45 1014 29.94 843 24.89 14.9 58.8 19 -8.4 17
10:50 1014 29.94 843 24.89 15.1 59.2 19 -8.1 17.3
10:55 1014 29.94 843 24.89 15 59 20 -7.9 17.8
11:00 1014 29.94 843 24.89 15.3 59.5 19 -7.8 17.9
11:05 1014 29.94 843 24.89 15.3 59.6 19 -7.9 17.7
11:10 1013 29.91 843 24.89 14.9 58.7 19 -8.2 17.2
11:15 1013 29.91 843 24.89 15.3 59.6 20 -7.8 18
11:20 1013 29.91 842 24.86 15.2 59.3 20 -7.4 18.7
11:25 1013 29.91 842 24.86 15.3 59.5 19 -8.1 17.4
11:30 1013 29.91 842 24.86 15.6 60 19 -8.1 17.4
11:35 1013 29.91 842 24.86 16.2 61.1 18 -8.4 16.9
11:40 1013 29.91 842 24.86 16.1 61 18 -7.9 17.7
11:45 1013 29.91 842 24.86 15.9 60.5 19 -7.8 18
11:50 1013 29.91 842 24.86 15.2 59.4 20 -7.6 18.3
11:55 1013 29.91 842 24.86 14.9 58.8 21 -7.3 18.9
12:00 1013 29.91 842 24.86 15.2 59.4 20 -7.5 18.4
12:05 1013 29.91 842 24.86 15.4 59.7 20 -7.3 18.9
12:10 1012 29.88 842 24.86 15.7 60.2 19 -7.5 18.5
12:15 1012 29.88 842 24.86 15.9 60.6 19 -7.7 18.2
12:20 1012 29.88 842 24.86 16.4 61.5 18 -7.6 18.4
12:25 1012 29.88 841 24.83 15.9 60.7 19 -7.3 18.8
12:30 1012 29.88 841 24.83 15.8 60.5 19 -7.7 18.1
12:35 1012 29.88 841 24.83 16.4 61.6 19 -7 19.4
12:40 1012 29.88 841 24.83 16.2 61.2 19 -7.4 18.8
12:45 1012 29.88 841 24.83 16.4 61.4 19 -7.1 19.1
12:50 1012 29.88 841 24.83 16.5 61.7 19 -7.4 18.6
12:55 1012 29.88 841 24.83 16.9 62.3 19 -6.7 20
13:00 1012 29.88 841 24.83 16.9 62.4 19 -6.9 19.6
13:05 1012 29.88 841 24.83 16.8 62.3 19 -7 19.4
13:10 1012 29.88 841 24.83 17.1 62.7 18 -7 19.3
13:15 1012 29.88 841 24.83 16.7 62 20 -6.6 20.1
13:20 1012 29.88 841 24.83 16.5 61.7 20 -6.7 19.9
13:25 1012 29.88 841 24.83 17.5 63.4 18 -6.7 20
13:30 1012 29.88 841 24.83 17.3 63.2 18 -7 19.5
13:35 1012 29.88 841 24.83 17 62.5 18 -7.2 19.1
13:40 1012 29.88 841 24.83 17.2 63 18 -7 19.4
13:45 1011 29.85 841 24.83 17.2 62.9 19 -6.3 20.7
13:50 1011 29.85 841 24.83 17.1 62.8 19 -6.7 20
13:55 1011 29.85 840 24.81 17 62.7 19 -6.4 20.5
14:00 1011 29.85 840 24.81 17.4 63.4 19 -6.2 20.9
14:05 1011 29.85 840 24.81 17.9 64.1 18 -6.5 20.3
14:10 1011 29.85 840 24.81 17.5 63.5 19 -6.2 20.8
14:15 1011 29.85 840 24.81 17.6 63.7 18 -6.6 20.1
14:20 1011 29.85 840 24.81 18.1 64.7 17 -7 19.4
14:25 1011 29.85 840 24.81 18.4 65.2 17 -7.3 18.9
14:30 1011 29.85 840 24.81 17.5 63.5 18 -6.9 19.6
14:35 1011 29.85 840 24.81 17.8 64 18 -6.8 19.8
14:40 1010 29.83 840 24.81 17.8 64 17 -7.2 19.1
14:45 1011 29.85 840 24.81 17.8 64 18 -7 19.3
14:50 1010 29.83 840 24.81 17.9 64.1 16 -8.6 16.5
14:55 1010 29.83 840 24.81 18.1 64.5 18 -6.7 19.9
15:00 1010 29.83 839 24.78 18 64.4 17 -7.4 18.7
15:05 1010 29.83 839 24.78 18 64.4 17 -7 19.4
15:10 1010 29.83 839 24.78 17.8 64.1 17 -7.3 18.9
15:15 1010 29.83 839 24.78 17.7 63.9 17 -7.7 18.2
15:20 1010 29.83 839 24.78 17.8 64 17 -7.4 18.6
15:25 1010 29.83 839 24.78 17.7 63.9 18 -6.9 19.6
15:30 1010 29.83 839 24.78 17.6 63.7 18 -7 19.4
15:35 1010 29.83 839 24.78 17.3 63.1 18 -7.1 19.3
15:40 1010 29.83 839 24.78 17.1 62.7 19 -6.8 19.7
15:45 1010 29.83 839 24.78 17.1 62.8 18 -7.3 18.9
15:50 1010 29.83 839 24.78 17 62.5 19 -6.5 20.3
15:55 1010 29.83 839 24.78 17 62.5 19 -6.8 19.8
16:00 1010 29.83 839 24.78 17.1 62.7 19 -6.7 19.9
16:05 1010 29.83 839 24.78 17.1 62.7 18 -7.7 18.1
16:10 1010 29.83 839 24.78 17.4 63.4 16 -8.8 16.2
16:15 1010 29.83 839 24.78 18 64.3 16 -8.2 17.2
16:20 1010 29.83 839 24.78 17.7 63.8 17 -7.5 18.5
16:25 1010 29.83 839 24.78 17.5 63.5 16 -8.3 17
16:30 1010 29.83 839 24.78 17.5 63.5 17 -7.9 17.8
16:35 1010 29.83 839 24.78 17.5 63.4 16 -8.9 15.9
16:40 1010 29.83 839 24.78 17.6 63.6 15 -9 15.8
16:45 1010 29.83 839 24.78 17.5 63.6 15 -9 15.9
16:50 1010 29.83 839 24.78 17.8 64 15 -9.3 15.2
16:55 1010 29.83 839 24.78 18 64.4 15 -9.2 15.5
17:00 1010 29.83 839 24.78 18.2 64.8 14 -9.4 15.1
17:05 1010 29.83 839 24.78 18.2 64.7 14 -9.3 15.3
17:10 1010 29.83 839 24.78 17.8 64.1 17 -7.7 18.2
17:15 1010 29.83 839 24.78 17.4 63.3 17 -7.9 17.7
17:20 1010 29.83 839 24.78 17.1 62.8 17 -7.7 18.1
17:25 1010 29.83 839 24.78 16.9 62.5 17 -8 17.6
17:30 1010 29.83 839 24.78 16.7 62 17 -8.2 17.2
17:35 1010 29.83 839 24.78 16.5 61.7 18 -8.2 17.3
17:40 1010 29.83 839 24.78 16.5 61.7 18 -7.8 18
17:45 1010 29.83 839 24.78 16.4 61.5 17 -8.7 16.3
17:50 1010 29.83 839 24.78 16.1 60.9 18 -8.5 16.7
17:55 1010 29.83 839 24.78 15.8 60.5 18 -8.2 17.2
18:00 1010 29.83 839 24.78 15.9 60.5 18 -8.6 16.6
18:05 1010 29.83 839 24.78 15.7 60.3 17 -9 15.8
18:10 1010 29.83 839 24.78 15.6 60.1 17 -9.3 15.3
18:15 1010 29.83 839 24.78 15.5 60 17 -9 15.8
18:20 1010 29.83 839 24.78 15.5 59.8 18 -9 15.7
18:25 1010 29.83 839 24.78 15.5 59.8 18 -8.9 16
18:30 1010 29.83 839 24.78 15.4 59.7 18 -8.7 16.4
18:35 1010 29.83 839 24.78 15.3 59.5 18 -9 15.8
18:40 1010 29.83 839 24.78 15.2 59.4 19 -8.3 17.1
18:45 1010 29.83 839 24.78 15.1 59.1 19 -8.5 16.7
18:50 1010 29.83 839 24.78 14.9 58.8 19 -8.4 16.9
18:55 1010 29.83 839 24.78 14.7 58.5 20 -8 17.6
19:00 1010 29.83 839 24.78 14.5 58.1 20 -8.2 17.3
19:05 1010 29.83 840 24.81 14.3 57.7 20 -8.2 17.2
19:10 1010 29.83 840 24.81 14.1 57.3 21 -7.8 17.9
19:15 1010 29.83 840 24.81 13.8 56.9 22 -7.8 18
19:20 1011 29.85 840 24.81 13.7 56.6 21 -8.1 17.4
19:25 1011 29.85 840 24.81 13.6 56.4 21 -8 17.5
19:30 1011 29.85 840 24.81 13.4 56.1 22 -8 17.6
19:35 1011 29.85 840 24.81 13.2 55.8 22 -7.8 17.9
19:40 1011 29.85 840 24.81 12.7 54.9 25 -6.9 19.7
19:45 1011 29.85 840 24.81 12 53.5 28 -6 21.2
19:50 1011 29.85 840 24.81 11.5 52.7 29 -6 21.3
19:55 1011 29.85 840 24.81 11.3 52.4 28 -6.7 19.9
20:00 1011 29.85 840 24.81 11.4 52.6 29 -5.8 21.5
20:05 1011 29.85 840 24.81 10.8 51.5 31 -5.7 21.7
20:10 1011 29.85 840 24.81 10.4 50.8 30 -6.5 20.3
20:15 1011 29.85 840 24.81 10.8 51.5 28 -6.9 19.5
20:20 1011 29.85 840 24.81 11 51.8 25 -8.2 17.2
20:25 1011 29.85 841 24.83 11.7 53 24 -8.2 17.3
20:30 1011 29.85 841 24.83 11.9 53.4 23 -8.8 16.1
20:35 1012 29.88 841 24.83 11.9 53.5 24 -8.1 17.5
20:40 1012 29.88 841 24.83 11.9 53.5 23 -8.7 16.3
20:45 1012 29.88 841 24.83 11.9 53.4 23 -8.7 16.4
20:50 1012 29.88 841 24.83 11.8 53.3 22 -9.2 15.5
20:55 1012 29.88 841 24.83 11.9 53.5 22 -8.9 16
21:00 1012 29.88 841 24.83 11.7 53.1 23 -8.6 16.5
21:05 1012 29.88 841 24.83 11.5 52.7 24 -8.5 16.7
21:10 1012 29.88 841 24.83 11.3 52.4 24 -8.6 16.5
21:15 1012 29.88 841 24.83 11.2 52.1 24 -8.4 16.9
21:20 1012 29.88 841 24.83 11.1 52 25 -8.3 17
21:25 1012 29.88 841 24.83 11 51.8 25 -8.2 17.3
21:30 1012 29.88 841 24.83 10.9 51.6 25 -8.3 17.1
21:35 1012 29.88 841 24.83 11 51.8 26 -8 17.6
21:40 1012 29.88 841 24.83 11 51.8 26 -7.7 18.2
21:45 1012 29.88 841 24.83 11 51.7 27 -7.4 18.7
21:50 1012 29.88 841 24.83 10.8 51.4 29 -6.4 20.4
21:55 1012 29.88 841 24.83 10.5 50.9 30 -6.3 20.6
22:00 1012 29.88 841 24.83 10.4 50.7 31 -6.1 21
22:05 1012 29.88 841 24.83 10.3 50.5 31 -6.1 21.1
22:10 1012 29.88 841 24.83 10.2 50.4 32 -5.9 21.3
22:15 1012 29.88 841 24.83 10.1 50.1 32 -5.9 21.4
22:20 1012 29.88 842 24.86 10 49.9 32 -5.9 21.4
22:25 1012 29.88 842 24.86 9.9 49.8 32 -5.8 21.5
22:30 1012 29.88 842 24.86 9.8 49.6 33 -5.8 21.6
22:35 1012 29.88 842 24.86 9.7 49.4 33 -5.8 21.6
22:40 1012 29.88 842 24.86 9.6 49.3 33 -5.9 21.4
22:45 1012 29.88 842 24.86 9.6 49.3 33 -5.9 21.4
22:50 1012 29.88 842 24.86 9.6 49.3 33 -5.9 21.5
22:55 1012 29.88 842 24.86 9.6 49.2 33 -5.8 21.5
23:00 1012 29.88 842 24.86 9.5 49 33 -5.9 21.4
23:05 1013 29.91 842 24.86 9.5 49 33 -5.9 21.3
23:10 1013 29.91 842 24.86 9.5 49 33 -5.9 21.3
23:15 1013 29.91 842 24.86 9.4 48.9 34 -5.8 21.5
23:20 1013 29.91 842 24.86 9.3 48.7 33 -6 21.3
23:25 1013 29.91 842 24.86 9.2 48.6 34 -5.9 21.4
23:30 1013 29.91 842 24.86 9.1 48.4 34 -5.9 21.4
23:35 1013 29.91 842 24.86 9.1 48.3 34 -5.9 21.4
23:40 1013 29.91 842 24.86 9.1 48.3 34 -6 21.2
23:45 1013 29.91 842 24.86 9.1 48.3 34 -6 21.2
23:50 1013 29.91 842 24.86 9 48.3 34 -6 21.2
23:55 1013 29.91 842 24.86 9 48.2 35 -5.8 21.6
24:00 1013 29.91 842 24.86 8.8 47.9 38 -4.9 23.3